sensor_id;sensor_type;location;lat;lon;timestamp;temperature;humidity
47162;DHT22;32921;53.256;8.198;2022-09-21T00:00:47;5.00;99.90
47162;DHT22;32921;53.256;8.198;2022-09-21T00:03:13;5.20;99.90
47162;DHT22;32921;53.256;8.198;2022-09-21T00:05:39;5.70;99.90
47162;DHT22;32921;53.256;8.198;2022-09-21T00:08:07;5.90;99.90
47162;DHT22;32921;53.256;8.198;2022-09-21T00:10:33;6.30;99.90
47162;DHT22;32921;53.256;8.198;2022-09-21T00:12:59;6.50;99.90
47162;DHT22;32921;53.256;8.198;2022-09-21T00:15:27;6.50;99.90
47162;DHT22;32921;53.256;8.198;2022-09-21T00:17:54;6.30;99.90
47162;DHT22;32921;53.256;8.198;2022-09-21T00:20:20;6.10;99.90
47162;DHT22;32921;53.256;8.198;2022-09-21T00:22:46;5.80;99.90
47162;DHT22;32921;53.256;8.198;2022-09-21T00:25:13;5.60;99.90
47162;DHT22;32921;53.256;8.198;2022-09-21T00:27:39;5.40;99.90
47162;DHT22;32921;53.256;8.198;2022-09-21T00:30:05;5.10;99.90
47162;DHT22;32921;53.256;8.198;2022-09-21T00:32:33;5.00;99.90
47162;DHT22;32921;53.256;8.198;2022-09-21T00:34:59;5.00;99.90
47162;DHT22;32921;53.256;8.198;2022-09-21T00:37:26;5.10;99.90
47162;DHT22;32921;53.256;8.198;2022-09-21T00:39:52;5.20;99.90
47162;DHT22;32921;53.256;8.198;2022-09-21T00:42:23;5.20;99.90
47162;DHT22;32921;53.256;8.198;2022-09-21T00:44:49;5.30;99.90
47162;DHT22;32921;53.256;8.198;2022-09-21T00:47:18;5.10;99.90
47162;DHT22;32921;53.256;8.198;2022-09-21T00:49:47;5.10;99.90
47162;DHT22;32921;53.256;8.198;2022-09-21T00:52:15;5.30;99.90
47162;DHT22;32921;53.256;8.198;2022-09-21T00:54:48;5.50;99.90
47162;DHT22;32921;53.256;8.198;2022-09-21T00:57:17;5.60;99.90
47162;DHT22;32921;53.256;8.198;2022-09-21T00:59:45;5.80;99.90
47162;DHT22;32921;53.256;8.198;2022-09-21T01:02:11;5.60;99.90
47162;DHT22;32921;53.256;8.198;2022-09-21T01:04:37;5.40;99.90
47162;DHT22;32921;53.256;8.198;2022-09-21T01:07:06;5.10;99.90
47162;DHT22;32921;53.256;8.198;2022-09-21T01:09:42;5.00;99.90
47162;DHT22;32921;53.256;8.198;2022-09-21T01:12:13;4.90;99.90
47162;DHT22;32921;53.256;8.198;2022-09-21T01:17:50;4.80;99.90
47162;DHT22;32921;53.256;8.198;2022-09-21T01:29:15;4.70;99.90
47162;DHT22;32921;53.256;8.198;2022-09-21T01:32:06;5.00;99.90
47162;DHT22;32921;53.256;8.198;2022-09-21T01:34:37;5.10;99.90
47162;DHT22;32921;53.256;8.198;2022-09-21T01:37:08;4.90;99.90
47162;DHT22;32921;53.256;8.198;2022-09-21T01:39:36;4.80;99.90
47162;DHT22;32921;53.256;8.198;2022-09-21T01:42:04;4.70;99.90
47162;DHT22;32921;53.256;8.198;2022-09-21T01:44:33;4.40;99.90
47162;DHT22;32921;53.256;8.198;2022-09-21T01:47:02;4.30;99.90
47162;DHT22;32921;53.256;8.198;2022-09-21T01:49:35;4.50;99.90
47162;DHT22;32921;53.256;8.198;2022-09-21T01:54:52;5.10;99.90
47162;DHT22;32921;53.256;8.198;2022-09-21T01:57:37;5.30;99.90
47162;DHT22;32921;53.256;8.198;2022-09-21T02:00:05;5.40;99.90
47162;DHT22;32921;53.256;8.198;2022-09-21T02:02:38;5.40;99.90
47162;DHT22;32921;53.256;8.198;2022-09-21T02:05:05;5.40;99.90
47162;DHT22;32921;53.256;8.198;2022-09-21T02:07:32;5.60;99.90
47162;DHT22;32921;53.256;8.198;2022-09-21T02:09:59;5.60;99.90
47162;DHT22;32921;53.256;8.198;2022-09-21T02:12:26;5.60;99.90
47162;DHT22;32921;53.256;8.198;2022-09-21T02:14:52;5.60;99.90
47162;DHT22;32921;53.256;8.198;2022-09-21T02:17:48;5.70;99.90
47162;DHT22;32921;53.256;8.198;2022-09-21T02:20:43;5.80;99.90
47162;DHT22;32921;53.256;8.198;2022-09-21T02:23:30;5.80;99.90
47162;DHT22;32921;53.256;8.198;2022-09-21T02:26:13;5.90;99.90
47162;DHT22;32921;53.256;8.198;2022-09-21T02:28:49;5.90;99.90
47162;DHT22;32921;53.256;8.198;2022-09-21T02:31:29;5.70;99.90
47162;DHT22;32921;53.256;8.198;2022-09-21T02:36:46;5.60;99.90
47162;DHT22;32921;53.256;8.198;2022-09-21T02:42:22;5.80;99.90
47162;DHT22;32921;53.256;8.198;2022-09-21T02:45:04;5.70;99.90
47162;DHT22;32921;53.256;8.198;2022-09-21T02:47:43;5.70;99.90
47162;DHT22;32921;53.256;8.198;2022-09-21T02:50:16;5.50;99.90
47162;DHT22;32921;53.256;8.198;2022-09-21T02:52:44;5.50;99.90
47162;DHT22;32921;53.256;8.198;2022-09-21T02:55:12;5.40;99.90
47162;DHT22;32921;53.256;8.198;2022-09-21T02:57:40;5.40;99.90
47162;DHT22;32921;53.256;8.198;2022-09-21T03:00:06;5.30;99.90
47162;DHT22;32921;53.256;8.198;2022-09-21T03:02:40;5.10;99.90
47162;DHT22;32921;53.256;8.198;2022-09-21T03:05:06;5.10;99.90
47162;DHT22;32921;53.256;8.198;2022-09-21T03:07:33;4.90;99.90
47162;DHT22;32921;53.256;8.198;2022-09-21T03:09:58;4.60;99.90
47162;DHT22;32921;53.256;8.198;2022-09-21T03:12:24;4.60;99.90
47162;DHT22;32921;53.256;8.198;2022-09-21T03:14:51;4.60;99.90
47162;DHT22;32921;53.256;8.198;2022-09-21T03:17:17;4.60;99.90
47162;DHT22;32921;53.256;8.198;2022-09-21T03:19:43;4.70;99.90
47162;DHT22;32921;53.256;8.198;2022-09-21T03:22:08;4.60;99.90
47162;DHT22;32921;53.256;8.198;2022-09-21T03:24:34;4.50;99.90
47162;DHT22;32921;53.256;8.198;2022-09-21T03:27:13;4.30;99.90
47162;DHT22;32921;53.256;8.198;2022-09-21T03:29:39;4.10;99.90
47162;DHT22;32921;53.256;8.198;2022-09-21T03:32:05;4.10;99.90
47162;DHT22;32921;53.256;8.198;2022-09-21T03:34:31;4.00;99.90
47162;DHT22;32921;53.256;8.198;2022-09-21T03:36:59;4.00;99.90
47162;DHT22;32921;53.256;8.198;2022-09-21T03:39:24;4.10;99.90
47162;DHT22;32921;53.256;8.198;2022-09-21T03:41:51;4.10;99.90
47162;DHT22;32921;53.256;8.198;2022-09-21T03:44:16;4.00;99.90
47162;DHT22;32921;53.256;8.198;2022-09-21T03:46:42;3.90;99.90
47162;DHT22;32921;53.256;8.198;2022-09-21T03:49:08;3.80;99.90
47162;DHT22;32921;53.256;8.198;2022-09-21T03:51:34;4.00;99.90
47162;DHT22;32921;53.256;8.198;2022-09-21T03:53:59;4.10;99.90
47162;DHT22;32921;53.256;8.198;2022-09-21T03:56:25;4.30;99.90
47162;DHT22;32921;53.256;8.198;2022-09-21T03:58:57;4.20;99.90
47162;DHT22;32921;53.256;8.198;2022-09-21T04:01:23;4.20;99.90
47162;DHT22;32921;53.256;8.198;2022-09-21T04:03:48;4.10;99.90
47162;DHT22;32921;53.256;8.198;2022-09-21T04:06:14;4.10;99.90
47162;DHT22;32921;53.256;8.198;2022-09-21T04:08:39;4.20;99.90
47162;DHT22;32921;53.256;8.198;2022-09-21T04:11:13;4.20;99.90
47162;DHT22;32921;53.256;8.198;2022-09-21T04:13:39;4.40;99.90
47162;DHT22;32921;53.256;8.198;2022-09-21T04:16:06;4.40;99.90
47162;DHT22;32921;53.256;8.198;2022-09-21T04:18:31;4.20;99.90
47162;DHT22;32921;53.256;8.198;2022-09-21T04:20:57;4.00;99.90
47162;DHT22;32921;53.256;8.198;2022-09-21T04:23:23;3.80;99.90
47162;DHT22;32921;53.256;8.198;2022-09-21T04:25:49;4.20;99.90
47162;DHT22;32921;53.256;8.198;2022-09-21T04:28:17;4.20;99.90
47162;DHT22;32921;53.256;8.198;2022-09-21T04:30:43;4.00;99.90
47162;DHT22;32921;53.256;8.198;2022-09-21T04:33:09;3.80;99.90
47162;DHT22;32921;53.256;8.198;2022-09-21T04:35:34;3.60;99.90
47162;DHT22;32921;53.256;8.198;2022-09-21T04:38:00;3.50;99.90
47162;DHT22;32921;53.256;8.198;2022-09-21T04:40:26;3.50;99.90
47162;DHT22;32921;53.256;8.198;2022-09-21T04:42:52;3.50;99.90
47162;DHT22;32921;53.256;8.198;2022-09-21T04:45:19;3.50;99.90
47162;DHT22;32921;53.256;8.198;2022-09-21T04:47:45;3.60;99.90
47162;DHT22;32921;53.256;8.198;2022-09-21T04:50:11;3.90;99.90
47162;DHT22;32921;53.256;8.198;2022-09-21T04:52:36;4.20;99.90
47162;DHT22;32921;53.256;8.198;2022-09-21T04:55:02;4.40;99.90
47162;DHT22;32921;53.256;8.198;2022-09-21T04:57:28;4.50;99.90
47162;DHT22;32921;53.256;8.198;2022-09-21T04:59:53;4.20;99.90
47162;DHT22;32921;53.256;8.198;2022-09-21T05:02:19;4.00;99.90
47162;DHT22;32921;53.256;8.198;2022-09-21T05:04:45;4.00;99.90
47162;DHT22;32921;53.256;8.198;2022-09-21T05:07:10;4.00;99.90
47162;DHT22;32921;53.256;8.198;2022-09-21T05:09:36;4.00;99.90
47162;DHT22;32921;53.256;8.198;2022-09-21T05:12:20;4.00;99.90
47162;DHT22;32921;53.256;8.198;2022-09-21T05:14:45;4.20;99.90
47162;DHT22;32921;53.256;8.198;2022-09-21T05:17:11;4.40;99.90
47162;DHT22;32921;53.256;8.198;2022-09-21T05:19:37;4.60;99.90
47162;DHT22;32921;53.256;8.198;2022-09-21T05:22:02;4.60;99.90
47162;DHT22;32921;53.256;8.198;2022-09-21T05:24:28;4.50;99.90
47162;DHT22;32921;53.256;8.198;2022-09-21T05:26:53;4.50;99.90
47162;DHT22;32921;53.256;8.198;2022-09-21T05:29:19;4.30;99.90
47162;DHT22;32921;53.256;8.198;2022-09-21T05:31:47;4.40;99.90
47162;DHT22;32921;53.256;8.198;2022-09-21T05:39:21;4.70;99.90
47162;DHT22;32921;53.256;8.198;2022-09-21T05:41:46;4.80;99.90
47162;DHT22;32921;53.256;8.198;2022-09-21T05:44:13;4.80;99.90
47162;DHT22;32921;53.256;8.198;2022-09-21T05:46:58;4.90;99.90
47162;DHT22;32921;53.256;8.198;2022-09-21T05:52:44;4.40;99.90
47162;DHT22;32921;53.256;8.198;2022-09-21T05:56:13;4.60;99.90
47162;DHT22;32921;53.256;8.198;2022-09-21T06:03:44;5.00;99.90
47162;DHT22;32921;53.256;8.198;2022-09-21T06:06:12;5.00;99.90
47162;DHT22;32921;53.256;8.198;2022-09-21T06:08:38;5.10;99.90
47162;DHT22;32921;53.256;8.198;2022-09-21T06:11:04;5.10;99.90
47162;DHT22;32921;53.256;8.198;2022-09-21T06:13:29;5.20;99.90
47162;DHT22;32921;53.256;8.198;2022-09-21T06:15:55;5.50;99.90
47162;DHT22;32921;53.256;8.198;2022-09-21T06:18:21;5.70;99.90
47162;DHT22;32921;53.256;8.198;2022-09-21T06:20:46;5.80;99.90
47162;DHT22;32921;53.256;8.198;2022-09-21T06:23:13;5.90;99.90
47162;DHT22;32921;53.256;8.198;2022-09-21T06:25:39;5.80;99.90
47162;DHT22;32921;53.256;8.198;2022-09-21T06:28:08;5.90;99.90
47162;DHT22;32921;53.256;8.198;2022-09-21T06:30:35;5.90;99.90
47162;DHT22;32921;53.256;8.198;2022-09-21T06:33:02;6.00;99.90
47162;DHT22;32921;53.256;8.198;2022-09-21T06:35:28;6.20;99.90
47162;DHT22;32921;53.256;8.198;2022-09-21T06:38:05;6.40;99.90
47162;DHT22;32921;53.256;8.198;2022-09-21T06:40:33;6.60;99.90
47162;DHT22;32921;53.256;8.198;2022-09-21T06:43:00;6.70;99.90
47162;DHT22;32921;53.256;8.198;2022-09-21T06:45:28;6.70;99.90
47162;DHT22;32921;53.256;8.198;2022-09-21T06:47:54;6.70;99.90
47162;DHT22;32921;53.256;8.198;2022-09-21T06:50:20;6.80;99.90
47162;DHT22;32921;53.256;8.198;2022-09-21T06:52:46;7.00;99.90
47162;DHT22;32921;53.256;8.198;2022-09-21T06:55:12;7.10;99.90
47162;DHT22;32921;53.256;8.198;2022-09-21T06:57:37;7.20;99.90
47162;DHT22;32921;53.256;8.198;2022-09-21T07:00:08;7.30;99.90
47162;DHT22;32921;53.256;8.198;2022-09-21T07:02:34;7.40;99.90
47162;DHT22;32921;53.256;8.198;2022-09-21T07:05:00;7.60;99.90
47162;DHT22;32921;53.256;8.198;2022-09-21T07:07:29;7.70;99.90
47162;DHT22;32921;53.256;8.198;2022-09-21T07:09:55;7.80;99.90
47162;DHT22;32921;53.256;8.198;2022-09-21T07:12:22;8.00;99.90
47162;DHT22;32921;53.256;8.198;2022-09-21T07:14:49;8.10;99.90
47162;DHT22;32921;53.256;8.198;2022-09-21T07:17:15;8.20;99.90
47162;DHT22;32921;53.256;8.198;2022-09-21T07:19:40;8.40;99.90
47162;DHT22;32921;53.256;8.198;2022-09-21T07:25:28;9.20;99.90
47162;DHT22;32921;53.256;8.198;2022-09-21T07:27:53;10.00;99.90
47162;DHT22;32921;53.256;8.198;2022-09-21T07:30:19;10.80;99.90
47162;DHT22;32921;53.256;8.198;2022-09-21T07:32:44;11.40;99.90
47162;DHT22;32921;53.256;8.198;2022-09-21T07:35:10;11.60;99.90
47162;DHT22;32921;53.256;8.198;2022-09-21T07:37:36;11.80;99.90
47162;DHT22;32921;53.256;8.198;2022-09-21T07:40:01;12.10;99.90
47162;DHT22;32921;53.256;8.198;2022-09-21T07:42:30;12.20;99.90
47162;DHT22;32921;53.256;8.198;2022-09-21T07:44:55;12.60;99.90
47162;DHT22;32921;53.256;8.198;2022-09-21T07:47:24;12.80;99.90
47162;DHT22;32921;53.256;8.198;2022-09-21T07:49:50;12.90;99.90
47162;DHT22;32921;53.256;8.198;2022-09-21T07:52:15;12.80;99.90
47162;DHT22;32921;53.256;8.198;2022-09-21T07:54:41;13.10;99.90
47162;DHT22;32921;53.256;8.198;2022-09-21T07:57:06;13.50;99.90
47162;DHT22;32921;53.256;8.198;2022-09-21T07:59:50;13.90;99.90
47162;DHT22;32921;53.256;8.198;2022-09-21T08:02:16;14.20;99.90
47162;DHT22;32921;53.256;8.198;2022-09-21T08:04:42;14.70;99.90
47162;DHT22;32921;53.256;8.198;2022-09-21T08:07:07;14.50;99.90
47162;DHT22;32921;53.256;8.198;2022-09-21T08:09:33;14.90;99.90
47162;DHT22;32921;53.256;8.198;2022-09-21T08:11:59;14.90;99.90
47162;DHT22;32921;53.256;8.198;2022-09-21T08:14:25;15.00;99.90
47162;DHT22;32921;53.256;8.198;2022-09-21T08:16:51;15.40;99.90
47162;DHT22;32921;53.256;8.198;2022-09-21T08:19:17;16.00;99.90
47162;DHT22;32921;53.256;8.198;2022-09-21T08:21:43;16.40;99.90
47162;DHT22;32921;53.256;8.198;2022-09-21T08:24:09;16.20;99.90
47162;DHT22;32921;53.256;8.198;2022-09-21T08:26:34;15.70;99.90
47162;DHT22;32921;53.256;8.198;2022-09-21T08:29:00;16.30;99.90
47162;DHT22;32921;53.256;8.198;2022-09-21T08:31:26;16.70;99.90
47162;DHT22;32921;53.256;8.198;2022-09-21T08:33:54;17.40;99.90
47162;DHT22;32921;53.256;8.198;2022-09-21T08:36:20;17.40;99.90
47162;DHT22;32921;53.256;8.198;2022-09-21T08:38:46;17.40;99.90
47162;DHT22;32921;53.256;8.198;2022-09-21T08:41:24;17.70;99.90
47162;DHT22;32921;53.256;8.198;2022-09-21T08:44:02;17.40;99.90
47162;DHT22;32921;53.256;8.198;2022-09-21T08:46:31;17.30;99.90
47162;DHT22;32921;53.256;8.198;2022-09-21T08:49:01;16.80;99.90
47162;DHT22;32921;53.256;8.198;2022-09-21T08:51:31;16.80;99.90
47162;DHT22;32921;53.256;8.198;2022-09-21T08:54:05;16.70;99.90
47162;DHT22;32921;53.256;8.198;2022-09-21T08:56:32;15.70;99.90
47162;DHT22;32921;53.256;8.198;2022-09-21T08:58:58;15.50;99.90
47162;DHT22;32921;53.256;8.198;2022-09-21T09:04:30;14.50;99.90
47162;DHT22;32921;53.256;8.198;2022-09-21T09:10:12;14.00;99.90
47162;DHT22;32921;53.256;8.198;2022-09-21T09:12:56;13.90;99.90
47162;DHT22;32921;53.256;8.198;2022-09-21T09:15:59;13.70;99.90
47162;DHT22;32921;53.256;8.198;2022-09-21T09:18:34;13.70;99.90
47162;DHT22;32921;53.256;8.198;2022-09-21T09:21:19;13.80;99.90
47162;DHT22;32921;53.256;8.198;2022-09-21T09:26:52;13.90;99.90
47162;DHT22;32921;53.256;8.198;2022-09-21T09:29:52;14.00;99.90
47162;DHT22;32921;53.256;8.198;2022-09-21T09:32:24;14.00;99.90
47162;DHT22;32921;53.256;8.198;2022-09-21T09:34:56;14.10;99.90
47162;DHT22;32921;53.256;8.198;2022-09-21T09:37:29;14.10;99.90
47162;DHT22;32921;53.256;8.198;2022-09-21T09:39:56;14.20;99.90
47162;DHT22;32921;53.256;8.198;2022-09-21T09:48:41;14.40;99.90
47162;DHT22;32921;53.256;8.198;2022-09-21T09:51:11;14.90;99.90
47162;DHT22;32921;53.256;8.198;2022-09-21T09:53:37;15.40;99.90
47162;DHT22;32921;53.256;8.198;2022-09-21T09:56:03;15.70;99.90
47162;DHT22;32921;53.256;8.198;2022-09-21T10:00:55;16.60;99.90
47162;DHT22;32921;53.256;8.198;2022-09-21T10:03:23;17.30;99.90
47162;DHT22;32921;53.256;8.198;2022-09-21T10:05:49;17.90;99.90
47162;DHT22;32921;53.256;8.198;2022-09-21T10:08:43;18.10;99.90
47162;DHT22;32921;53.256;8.198;2022-09-21T10:11:14;19.10;99.90
47162;DHT22;32921;53.256;8.198;2022-09-21T10:13:44;19.10;99.90
47162;DHT22;32921;53.256;8.198;2022-09-21T10:16:14;19.30;99.90
47162;DHT22;32921;53.256;8.198;2022-09-21T10:18:52;19.70;99.90
47162;DHT22;32921;53.256;8.198;2022-09-21T10:21:24;19.70;97.90
47162;DHT22;32921;53.256;8.198;2022-09-21T10:23:57;20.30;99.90
47162;DHT22;32921;53.256;8.198;2022-09-21T10:26:43;21.50;91.10
47162;DHT22;32921;53.256;8.198;2022-09-21T10:31:55;22.20;83.40
47162;DHT22;32921;53.256;8.198;2022-09-21T10:34:22;22.00;82.10
47162;DHT22;32921;53.256;8.198;2022-09-21T10:36:50;22.30;83.70
47162;DHT22;32921;53.256;8.198;2022-09-21T10:39:24;21.60;79.70
47162;DHT22;32921;53.256;8.198;2022-09-21T10:41:59;21.40;84.40
47162;DHT22;32921;53.256;8.198;2022-09-21T10:44:32;21.10;78.60
47162;DHT22;32921;53.256;8.198;2022-09-21T10:47:03;20.50;78.20
47162;DHT22;32921;53.256;8.198;2022-09-21T10:49:43;19.50;80.70
47162;DHT22;32921;53.256;8.198;2022-09-21T10:52:10;18.90;83.80
47162;DHT22;32921;53.256;8.198;2022-09-21T10:54:39;18.30;82.70
47162;DHT22;32921;53.256;8.198;2022-09-21T10:57:08;19.00;84.30
47162;DHT22;32921;53.256;8.198;2022-09-21T10:59:35;19.40;80.40
47162;DHT22;32921;53.256;8.198;2022-09-21T11:05:16;21.40;79.10
47162;DHT22;32921;53.256;8.198;2022-09-21T11:08:00;22.60;75.70
47162;DHT22;32921;53.256;8.198;2022-09-21T11:10:32;23.20;71.40
47162;DHT22;32921;53.256;8.198;2022-09-21T11:13:04;23.80;68.50
47162;DHT22;32921;53.256;8.198;2022-09-21T11:21:43;25.50;63.00
47162;DHT22;32921;53.256;8.198;2022-09-21T11:27:01;25.70;58.40
47162;DHT22;32921;53.256;8.198;2022-09-21T11:30:05;26.10;54.50
47162;DHT22;32921;53.256;8.198;2022-09-21T11:44:05;26.80;52.40
47162;DHT22;32921;53.256;8.198;2022-09-21T11:49:50;26.60;50.60
47162;DHT22;32921;53.256;8.198;2022-09-21T11:52:45;26.10;50.60
47162;DHT22;32921;53.256;8.198;2022-09-21T11:55:59;26.30;50.00
47162;DHT22;32921;53.256;8.198;2022-09-21T11:59:06;24.90;51.50
47162;DHT22;32921;53.256;8.198;2022-09-21T12:07:53;26.30;50.60
47162;DHT22;32921;53.256;8.198;2022-09-21T12:10:37;25.90;49.50
47162;DHT22;32921;53.256;8.198;2022-09-21T12:13:31;24.20;48.70
47162;DHT22;32921;53.256;8.198;2022-09-21T12:16:09;25.50;48.30
47162;DHT22;32921;53.256;8.198;2022-09-21T12:18:49;26.70;45.50
47162;DHT22;32921;53.256;8.198;2022-09-21T12:21:21;26.80;43.50
47162;DHT22;32921;53.256;8.198;2022-09-21T12:24:01;25.40;44.40
47162;DHT22;32921;53.256;8.198;2022-09-21T12:26:41;24.00;48.10
47162;DHT22;32921;53.256;8.198;2022-09-21T12:29:30;22.70;51.40
47162;DHT22;32921;53.256;8.198;2022-09-21T12:32:24;21.70;53.30
47162;DHT22;32921;53.256;8.198;2022-09-21T12:35:03;21.00;58.30
47162;DHT22;32921;53.256;8.198;2022-09-21T12:37:39;20.30;62.30
47162;DHT22;32921;53.256;8.198;2022-09-21T12:40:21;19.30;64.50
47162;DHT22;32921;53.256;8.198;2022-09-21T12:43:04;18.60;63.90
47162;DHT22;32921;53.256;8.198;2022-09-21T12:45:36;18.50;64.50
47162;DHT22;32921;53.256;8.198;2022-09-21T12:48:08;19.70;60.50
47162;DHT22;32921;53.256;8.198;2022-09-21T12:50:56;20.30;59.90
47162;DHT22;32921;53.256;8.198;2022-09-21T12:53:26;20.10;59.40
47162;DHT22;32921;53.256;8.198;2022-09-21T12:58:52;19.80;60.50
47162;DHT22;32921;53.256;8.198;2022-09-21T13:01:30;21.10;60.50
47162;DHT22;32921;53.256;8.198;2022-09-21T13:04:20;23.70;52.40
47162;DHT22;32921;53.256;8.198;2022-09-21T13:09:20;26.70;49.60
47162;DHT22;32921;53.256;8.198;2022-09-21T13:11:55;28.10;46.40
47162;DHT22;32921;53.256;8.198;2022-09-21T13:14:27;28.70;43.40
47162;DHT22;32921;53.256;8.198;2022-09-21T13:16:55;28.60;42.20
47162;DHT22;32921;53.256;8.198;2022-09-21T13:19:24;28.20;41.10
47162;DHT22;32921;53.256;8.198;2022-09-21T13:24:39;27.70;40.80
47162;DHT22;32921;53.256;8.198;2022-09-21T13:27:06;27.50;41.20
47162;DHT22;32921;53.256;8.198;2022-09-21T13:29:36;27.70;42.30
47162;DHT22;32921;53.256;8.198;2022-09-21T13:39:51;28.20;40.90
47162;DHT22;32921;53.256;8.198;2022-09-21T13:47:39;26.10;44.30
47162;DHT22;32921;53.256;8.198;2022-09-21T13:50:31;24.80;43.40
47162;DHT22;32921;53.256;8.198;2022-09-21T13:53:00;23.60;47.90
47162;DHT22;32921;53.256;8.198;2022-09-21T13:55:28;22.30;51.30
47162;DHT22;32921;53.256;8.198;2022-09-21T13:57:56;22.00;52.10
47162;DHT22;32921;53.256;8.198;2022-09-21T14:03:15;23.40;47.50
47162;DHT22;32921;53.256;8.198;2022-09-21T14:05:45;23.10;48.20
47162;DHT22;32921;53.256;8.198;2022-09-21T14:10:54;21.90;49.80
47162;DHT22;32921;53.256;8.198;2022-09-21T14:13:37;21.30;54.60
47162;DHT22;32921;53.256;8.198;2022-09-21T14:24:43;21.20;50.70
47162;DHT22;32921;53.256;8.198;2022-09-21T14:27:41;21.80;51.70
47162;DHT22;32921;53.256;8.198;2022-09-21T14:30:22;22.10;49.10
47162;DHT22;32921;53.256;8.198;2022-09-21T14:33:06;22.50;47.50
47162;DHT22;32921;53.256;8.198;2022-09-21T14:35:41;21.90;48.60
47162;DHT22;32921;53.256;8.198;2022-09-21T14:41:35;20.30;52.50
47162;DHT22;32921;53.256;8.198;2022-09-21T14:44:02;21.30;50.50
47162;DHT22;32921;53.256;8.198;2022-09-21T14:46:52;22.50;48.10
47162;DHT22;32921;53.256;8.198;2022-09-21T15:00:34;25.60;42.30
47162;DHT22;32921;53.256;8.198;2022-09-21T15:06:32;23.80;42.60
47162;DHT22;32921;53.256;8.198;2022-09-21T15:09:35;23.80;44.70
47162;DHT22;32921;53.256;8.198;2022-09-21T15:12:56;24.70;44.00
47162;DHT22;32921;53.256;8.198;2022-09-21T15:15:36;25.70;42.40
47162;DHT22;32921;53.256;8.198;2022-09-21T15:18:16;25.80;40.20
47162;DHT22;32921;53.256;8.198;2022-09-21T15:20:59;26.40;40.10
47162;DHT22;32921;53.256;8.198;2022-09-21T15:23:31;27.00;37.30
47162;DHT22;32921;53.256;8.198;2022-09-21T15:26:08;26.80;39.80
47162;DHT22;32921;53.256;8.198;2022-09-21T15:28:37;26.40;40.00
47162;DHT22;32921;53.256;8.198;2022-09-21T15:31:06;26.10;39.00
47162;DHT22;32921;53.256;8.198;2022-09-21T15:33:40;27.10;38.00
47162;DHT22;32921;53.256;8.198;2022-09-21T15:36:07;26.50;38.10
47162;DHT22;32921;53.256;8.198;2022-09-21T15:38:35;26.60;38.70
47162;DHT22;32921;53.256;8.198;2022-09-21T15:41:03;27.00;39.00
47162;DHT22;32921;53.256;8.198;2022-09-21T15:43:34;26.70;38.90
47162;DHT22;32921;53.256;8.198;2022-09-21T15:46:05;27.00;38.90
47162;DHT22;32921;53.256;8.198;2022-09-21T15:48:37;26.40;39.00
47162;DHT22;32921;53.256;8.198;2022-09-21T15:51:24;25.70;40.60
47162;DHT22;32921;53.256;8.198;2022-09-21T15:54:08;25.30;41.40
47162;DHT22;32921;53.256;8.198;2022-09-21T15:56:42;23.80;42.70
47162;DHT22;32921;53.256;8.198;2022-09-21T15:59:13;22.00;46.60
47162;DHT22;32921;53.256;8.198;2022-09-21T16:01:43;20.30;48.90
47162;DHT22;32921;53.256;8.198;2022-09-21T16:04:21;19.30;51.80
47162;DHT22;32921;53.256;8.198;2022-09-21T16:09:49;18.00;56.20
47162;DHT22;32921;53.256;8.198;2022-09-21T16:12:37;17.60;57.50
47162;DHT22;32921;53.256;8.198;2022-09-21T16:15:15;17.30;58.50
47162;DHT22;32921;53.256;8.198;2022-09-21T16:17:56;17.00;59.30
47162;DHT22;32921;53.256;8.198;2022-09-21T16:20:24;16.80;62.30
47162;DHT22;32921;53.256;8.198;2022-09-21T16:22:52;16.60;59.50
47162;DHT22;32921;53.256;8.198;2022-09-21T16:25:33;16.40;58.90
47162;DHT22;32921;53.256;8.198;2022-09-21T16:28:29;16.30;63.50
47162;DHT22;32921;53.256;8.198;2022-09-21T16:30:55;16.10;66.50
47162;DHT22;32921;53.256;8.198;2022-09-21T16:38:51;15.50;67.80
47162;DHT22;32921;53.256;8.198;2022-09-21T16:41:33;15.50;71.20
47162;DHT22;32921;53.256;8.198;2022-09-21T16:43:59;15.30;70.50
47162;DHT22;32921;53.256;8.198;2022-09-21T16:46:28;15.30;69.60
47162;DHT22;32921;53.256;8.198;2022-09-21T16:48:53;15.10;72.70
47162;DHT22;32921;53.256;8.198;2022-09-21T16:51:20;15.00;78.80
47162;DHT22;32921;53.256;8.198;2022-09-21T16:53:57;14.70;78.70
47162;DHT22;32921;53.256;8.198;2022-09-21T16:56:27;14.40;79.90
47162;DHT22;32921;53.256;8.198;2022-09-21T16:58:52;14.20;81.70
47162;DHT22;32921;53.256;8.198;2022-09-21T17:01:18;14.00;88.00
47162;DHT22;32921;53.256;8.198;2022-09-21T17:03:45;13.90;93.70
47162;DHT22;32921;53.256;8.198;2022-09-21T17:06:18;13.60;94.70
47162;DHT22;32921;53.256;8.198;2022-09-21T17:08:45;13.40;97.20
47162;DHT22;32921;53.256;8.198;2022-09-21T17:11:19;13.10;98.00
47162;DHT22;32921;53.256;8.198;2022-09-21T17:13:51;12.80;99.60
47162;DHT22;32921;53.256;8.198;2022-09-21T17:16:18;12.60;99.90
47162;DHT22;32921;53.256;8.198;2022-09-21T17:18:46;12.50;99.90
47162;DHT22;32921;53.256;8.198;2022-09-21T17:21:17;12.30;99.90
47162;DHT22;32921;53.256;8.198;2022-09-21T17:23:43;12.30;99.90
47162;DHT22;32921;53.256;8.198;2022-09-21T17:26:16;12.10;99.90
47162;DHT22;32921;53.256;8.198;2022-09-21T17:28:45;11.80;99.90
47162;DHT22;32921;53.256;8.198;2022-09-21T17:31:13;11.60;99.90
47162;DHT22;32921;53.256;8.198;2022-09-21T17:33:40;11.70;99.90
47162;DHT22;32921;53.256;8.198;2022-09-21T17:36:13;11.50;99.90
47162;DHT22;32921;53.256;8.198;2022-09-21T17:38:39;11.40;99.90
47162;DHT22;32921;53.256;8.198;2022-09-21T17:41:15;11.20;99.90
47162;DHT22;32921;53.256;8.198;2022-09-21T17:44:03;11.20;99.90
47162;DHT22;32921;53.256;8.198;2022-09-21T17:49:23;11.00;99.90
47162;DHT22;32921;53.256;8.198;2022-09-21T17:51:49;10.70;99.90
47162;DHT22;32921;53.256;8.198;2022-09-21T17:54:33;10.50;99.90
47162;DHT22;32921;53.256;8.198;2022-09-21T17:57:10;10.40;99.90
47162;DHT22;32921;53.256;8.198;2022-09-21T17:59:38;10.00;99.90
47162;DHT22;32921;53.256;8.198;2022-09-21T18:02:34;10.00;99.90
47162;DHT22;32921;53.256;8.198;2022-09-21T18:05:04;9.70;99.90
47162;DHT22;32921;53.256;8.198;2022-09-21T18:07:37;9.80;99.90
47162;DHT22;32921;53.256;8.198;2022-09-21T18:10:03;9.80;99.90
47162;DHT22;32921;53.256;8.198;2022-09-21T18:18:38;9.60;99.90
47162;DHT22;32921;53.256;8.198;2022-09-21T18:20:59;9.60;99.90
47162;DHT22;32921;53.256;8.198;2022-09-21T18:23:55;9.50;99.90
47162;DHT22;32921;53.256;8.198;2022-09-21T18:26:28;9.30;99.90
47162;DHT22;32921;53.256;8.198;2022-09-21T18:28:57;9.40;99.90
47162;DHT22;32921;53.256;8.198;2022-09-21T18:37:40;9.40;99.90
47162;DHT22;32921;53.256;8.198;2022-09-21T18:40:35;9.40;99.90
47162;DHT22;32921;53.256;8.198;2022-09-21T18:43:25;9.00;99.90
47162;DHT22;32921;53.256;8.198;2022-09-21T18:45:59;9.00;99.90
47162;DHT22;32921;53.256;8.198;2022-09-21T18:51:14;8.80;99.90
47162;DHT22;32921;53.256;8.198;2022-09-21T18:53:52;8.70;99.90
47162;DHT22;32921;53.256;8.198;2022-09-21T18:56:24;8.60;99.90